メインページ
METAR-TAF:

METAR-TAF

空港 :

鹿児島空港

鹿児島, 日本

緯度: 31-48N, 経度: 130-43E, 海抜: 272m

現時点の気象観測

当レポートは21分前の23:00(UTC)に作成
の風 4kt
気温 12°C
湿度 100%
気圧 1017 hPa
視程10km以上
高度100ftの雲はほとんどない
散在霧

METAR: RJFK 162300Z 35004KT 9999 BCFG FEW001 12/12 Q1017 RMK 1ST001 A3005 FG NW-E VOLCANIC ASH CLOUD S

時間: 08:21 (23:21 UTC)

予報

当レポートは2時間14分前の21:07(UTC)に作成
予報は16日の 21時(UTC)から 18日の 00時(UTC)まで有効
の風 6kt
視程10km以上
高度2000ftの雲はほとんどない
高度4000ftの雲は散在している
16日の 21時(UTC)から 16日の 22時(UTC)まで一時的に
視程: 0800m
高度100ftの雲はほとんどない
高度200ftの千切れ雲あり
高度800ftの千切れ雲あり
16日の 22時(UTC)から 17日の 00時(UTC)まで一時的に
視程: 4000m
高度500ftの雲はほとんどない
高度800ftの千切れ雲あり
高度1500ftの千切れ雲あり
17日の 00時(UTC)から 17日の 02時(UTC)まで徐々に
南/南西の風 3kt
17日の 06時(UTC)から 17日の 09時(UTC)まで徐々に
の風 5kt

TAF: RJFK 162107Z 1621/1800 35006KT 9999 FEW020 SCT040 TEMPO 1621/1622 0800 FG FEW001 BKN002 BKN008 TEMPO 1622/1700 4000 BR FEW005 BKN008 BKN015 BECMG 1700/1702 21003KT BECMG 1706/1709 35005KT

4,000以上の空港の気象観測と天気予報(METAR報とTAF報)

利用可能な観測所は地図上に黄色い丸と赤い丸で示す。

丸の上にカーソルを重ねると観測所名を参照できる。

次にクリックすると気象観測と天気予報を参照できる。

マップの切り替え:黒色「×」印の緑ボタンをクリックして拡大、「-」印の緑ボタンをクリックして縮小、緑色の三角印をクリックして隣りの地図に切り替え


METAR-TAF: